Time;durP1;ratioP1;P1;durP2;ratioP2;P2;SDS_P1;SDS_P2;PMS_P1;PMS_P2;Temp;Humidity;BMP_temperature;BMP_pressure;BME280_temperature;BME280_humidity;BME280_pressure;Samples;Min_cycle;Max_cycle;Signal;HPM_P1;HPM_P2
2022/07/17 00:01:49;;;;;;;;;;;25.90;99.20;;;;;;5074629;28;19904;-71
2022/07/17 00:04:15;;;;;;;;;;;25.90;99.20;;;;;;5072345;28;19989;-71
2022/07/17 00:06:40;;;;;;;;;;;26.00;99.10;;;;;;5073804;28;19904;-71
2022/07/17 00:09:07;;;;;;;;;;;25.90;99.30;;;;;;5073940;28;19976;-72
2022/07/17 00:11:32;;;;;;;;;;;25.90;99.50;;;;;;5073744;28;19948;-71
2022/07/17 00:13:58;;;;;;;;;;;25.90;99.50;;;;;;5073609;28;19958;-71
2022/07/17 00:16:24;;;;;;;;;;;25.80;99.60;;;;;;5073351;28;20015;-71
2022/07/17 00:18:50;;;;;;;;;;;25.80;99.70;;;;;;5073522;28;19904;-71
2022/07/17 00:21:16;;;;;;;;;;;25.80;99.90;;;;;;5073413;28;20357;-71
2022/07/17 00:23:42;;;;;;;;;;;25.70;99.90;;;;;;5073760;28;19909;-71
2022/07/17 00:26:08;;;;;;;;;;;25.70;99.90;;;;;;5072493;28;19904;-71
2022/07/17 00:28:34;;;;;;;;;;;25.70;99.90;;;;;;5073227;28;19912;-71
2022/07/17 00:31:00;;;;;;;;;;;25.70;99.90;;;;;;5073276;28;20265;-71
2022/07/17 00:33:26;;;;;;;;;;;25.70;99.90;;;;;;5073646;28;19999;-71
2022/07/17 00:35:51;;;;;;;;;;;25.70;99.90;;;;;;5073094;28;20257;-71
2022/07/17 00:38:17;;;;;;;;;;;25.70;99.90;;;;;;5073602;28;19904;-71
2022/07/17 00:40:44;;;;;;;;;;;25.70;99.90;;;;;;5072869;28;19908;-71
2022/07/17 00:43:10;;;;;;;;;;;25.70;99.90;;;;;;5073228;28;19916;-71
2022/07/17 00:45:36;;;;;;;;;;;25.70;99.90;;;;;;5072978;28;20492;-71
2022/07/17 00:48:03;;;;;;;;;;;25.70;99.90;;;;;;5073211;28;19918;-72
2022/07/17 00:50:31;;;;;;;;;;;25.80;99.90;;;;;;5072687;28;19908;-71
2022/07/17 00:52:57;;;;;;;;;;;25.70;99.90;;;;;;5073400;28;20367;-71
2022/07/17 00:55:23;;;;;;;;;;;25.70;99.90;;;;;;5072493;28;19904;-71
2022/07/17 00:57:51;;;;;;;;;;;25.80;99.90;;;;;;5072546;28;20380;-70
2022/07/17 01:00:18;;;;;;;;;;;25.80;99.90;;;;;;5072826;28;19904;-70
2022/07/17 01:02:47;;;;;;;;;;;25.80;99.90;;;;;;5072518;28;19912;-72
2022/07/17 01:05:14;;;;;;;;;;;25.80;99.90;;;;;;5072598;28;19904;-71
2022/07/17 01:07:40;;;;;;;;;;;25.80;99.90;;;;;;5072434;28;19979;-70
2022/07/17 01:10:06;;;;;;;;;;;25.70;99.90;;;;;;5072442;28;19943;-70
2022/07/17 01:12:33;;;;;;;;;;;25.70;99.90;;;;;;5072305;28;19957;-70
2022/07/17 01:14:59;;;;;;;;;;;25.80;99.90;;;;;;5072089;28;19905;-71
2022/07/17 01:17:25;;;;;;;;;;;25.70;99.90;;;;;;5072709;28;19913;-70
2022/07/17 01:19:51;;;;;;;;;;;25.70;99.90;;;;;;5072318;28;19904;-71
2022/07/17 01:22:17;;;;;;;;;;;25.70;99.90;;;;;;5072081;28;19905;-71
2022/07/17 01:24:43;;;;;;;;;;;25.70;99.90;;;;;;5072349;28;20006;-71
2022/07/17 01:27:09;;;;;;;;;;;25.70;99.90;;;;;;5072597;28;20054;-71
2022/07/17 01:29:39;;;;;;;;;;;25.70;99.90;;;;;;5072604;28;19904;-71
2022/07/17 01:32:05;;;;;;;;;;;25.70;99.90;;;;;;5072247;28;19919;-71
2022/07/17 01:34:31;;;;;;;;;;;25.70;99.90;;;;;;5072480;28;19912;-71
2022/07/17 01:36:57;;;;;;;;;;;25.60;99.90;;;;;;5072149;28;19905;-71
2022/07/17 01:40:08;;;;;;;;;;;25.60;99.90;;;;;;5072021;28;20332;-72
2022/07/17 01:42:10;;;;;;;;;;;25.50;99.90;;;;;;5068075;28;19999;-71
2022/07/17 01:44:36;;;;;;;;;;;25.60;99.90;;;;;;5072372;28;19908;-71
2022/07/17 01:47:03;;;;;;;;;;;25.60;99.90;;;;;;5072003;28;19954;-71
2022/07/17 01:49:28;;;;;;;;;;;25.50;99.90;;;;;;5072026;28;20034;-71
2022/07/17 01:51:59;;;;;;;;;;;25.50;99.90;;;;;;5072180;28;19916;-71
2022/07/17 01:54:29;;;;;;;;;;;25.50;99.90;;;;;;5071961;28;19904;-72
2022/07/17 01:56:55;;;;;;;;;;;25.50;99.90;;;;;;5071680;28;19908;-70
2022/07/17 01:59:20;;;;;;;;;;;25.50;99.90;;;;;;5071628;28;19905;-70
2022/07/17 02:01:46;;;;;;;;;;;25.50;99.90;;;;;;5103932;28;20116;-70
2022/07/17 02:04:12;;;;;;;;;;;25.50;99.90;;;;;;5071609;28;19904;-70
2022/07/17 02:06:38;;;;;;;;;;;25.40;99.90;;;;;;5071559;28;19904;-71
2022/07/17 02:09:04;;;;;;;;;;;25.40;99.90;;;;;;5071563;28;19904;-71
2022/07/17 02:11:29;;;;;;;;;;;25.50;99.90;;;;;;5071781;28;19995;-71
2022/07/17 02:13:55;;;;;;;;;;;25.40;99.90;;;;;;5071768;28;20269;-71
2022/07/17 02:16:21;;;;;;;;;;;25.40;99.90;;;;;;5071392;28;19924;-71
2022/07/17 02:18:47;;;;;;;;;;;25.30;99.90;;;;;;5071764;28;20331;-71
2022/07/17 02:21:12;;;;;;;;;;;25.40;99.90;;;;;;5071447;28;19909;-71
2022/07/17 02:23:38;;;;;;;;;;;25.40;99.90;;;;;;5071550;28;19904;-71
2022/07/17 02:26:04;;;;;;;;;;;25.30;99.90;;;;;;5071718;28;19967;-71
2022/07/17 02:28:30;;;;;;;;;;;25.30;99.90;;;;;;5071557;28;19996;-70
2022/07/17 02:30:56;;;;;;;;;;;25.30;99.90;;;;;;5071282;28;20379;-71
2022/07/17 02:33:21;;;;;;;;;;;25.40;99.90;;;;;;5071845;28;19908;-71
2022/07/17 02:35:47;;;;;;;;;;;25.40;99.90;;;;;;5071333;28;19904;-70
2022/07/17 02:38:14;;;;;;;;;;;25.40;99.90;;;;;;5071323;28;19911;-71
2022/07/17 02:40:41;;;;;;;;;;;25.40;99.80;;;;;;5071210;28;19915;-71
2022/07/17 02:43:07;;;;;;;;;;;25.50;99.70;;;;;;5071427;28;19911;-71
2022/07/17 02:45:33;;;;;;;;;;;25.50;99.90;;;;;;5071739;28;20264;-71
2022/07/17 02:47:59;;;;;;;;;;;25.50;99.70;;;;;;5071367;28;19905;-71
2022/07/17 02:50:25;;;;;;;;;;;25.40;99.80;;;;;;5072912;28;19908;-71
2022/07/17 02:52:51;;;;;;;;;;;25.40;99.90;;;;;;5074920;28;19908;-71
2022/07/17 02:55:17;;;;;;;;;;;25.30;99.90;;;;;;5075073;28;19999;-71
2022/07/17 02:57:43;;;;;;;;;;;25.20;99.90;;;;;;5074627;28;19905;-71
2022/07/17 03:00:11;;;;;;;;;;;25.20;99.90;;;;;;5074745;28;19911;-70
2022/07/17 03:02:37;;;;;;;;;;;25.20;99.90;;;;;;5075077;28;19904;-71
2022/07/17 03:05:03;;;;;;;;;;;25.20;99.90;;;;;;5074607;28;19912;-71
2022/07/17 03:07:29;;;;;;;;;;;25.10;99.90;;;;;;5074897;28;19912;-71
2022/07/17 03:09:55;;;;;;;;;;;25.10;99.90;;;;;;5074560;28;19908;-71
2022/07/17 03:12:20;;;;;;;;;;;25.20;99.90;;;;;;5074863;28;19930;-71
2022/07/17 03:14:46;;;;;;;;;;;25.20;99.90;;;;;;5074643;28;20011;-71
2022/07/17 03:17:12;;;;;;;;;;;25.20;99.60;;;;;;5074152;28;19977;-71
2022/07/17 03:19:43;;;;;;;;;;;25.20;99.40;;;;;;5074539;28;20398;-71
2022/07/17 03:22:09;;;;;;;;;;;25.20;99.50;;;;;;5074377;28;19904;-70
2022/07/17 03:24:34;;;;;;;;;;;25.20;99.30;;;;;;5074179;28;19908;-71
2022/07/17 03:27:00;;;;;;;;;;;25.10;99.20;;;;;;5074051;28;19904;-71
2022/07/17 03:29:27;;;;;;;;;;;25.00;99.20;;;;;;5074459;28;19944;-71
2022/07/17 03:31:52;;;;;;;;;;;25.00;99.10;;;;;;5074063;28;20006;-70
2022/07/17 03:34:18;;;;;;;;;;;25.00;98.90;;;;;;5074431;28;19936;-71
2022/07/17 03:36:44;;;;;;;;;;;25.10;98.80;;;;;;5073963;28;19904;-70
2022/07/17 03:39:10;;;;;;;;;;;25.00;98.60;;;;;;5073948;28;20041;-71
2022/07/17 03:41:36;;;;;;;;;;;25.10;98.40;;;;;;5074052;28;20245;-71
2022/07/17 03:44:01;;;;;;;;;;;25.10;98.10;;;;;;5074096;28;19979;-71
2022/07/17 03:46:27;;;;;;;;;;;25.20;97.80;;;;;;5074123;28;20290;-71
2022/07/17 03:48:53;;;;;;;;;;;25.20;97.70;;;;;;5073565;28;19912;-71
2022/07/17 03:51:19;;;;;;;;;;;25.20;97.50;;;;;;5072225;28;19912;-71
2022/07/17 03:53:45;;;;;;;;;;;25.20;97.30;;;;;;5073816;28;19905;-72
2022/07/17 03:56:10;;;;;;;;;;;25.20;97.20;;;;;;5073700;28;19904;-71
2022/07/17 03:58:36;;;;;;;;;;;25.30;96.90;;;;;;5073639;28;19908;-70
2022/07/17 04:01:02;;;;;;;;;;;25.40;96.80;;;;;;5073349;28;19916;-70
2022/07/17 04:03:28;;;;;;;;;;;25.40;96.70;;;;;;5073485;28;19911;-71
2022/07/17 04:05:54;;;;;;;;;;;25.40;96.70;;;;;;5073800;28;20082;-71
2022/07/17 04:08:20;;;;;;;;;;;25.40;96.60;;;;;;5071902;28;19911;-71
2022/07/17 04:10:46;;;;;;;;;;;25.40;96.60;;;;;;5106365;28;19912;-71
2022/07/17 04:13:12;;;;;;;;;;;25.40;96.50;;;;;;5073476;28;19934;-71
2022/07/17 04:15:49;;;;;;;;;;;25.40;96.40;;;;;;5073288;28;20336;-71
2022/07/17 04:18:15;;;;;;;;;;;25.40;96.40;;;;;;5073754;28;19908;-71
2022/07/17 04:20:41;;;;;;;;;;;25.40;96.40;;;;;;5073490;28;19911;-71
2022/07/17 04:23:07;;;;;;;;;;;25.40;96.40;;;;;;5073287;28;19904;-71
2022/07/17 04:25:33;;;;;;;;;;;25.40;96.50;;;;;;5073139;28;19905;-71
2022/07/17 04:27:59;;;;;;;;;;;25.50;96.50;;;;;;5072891;28;19905;-71
2022/07/17 04:30:25;;;;;;;;;;;25.50;96.40;;;;;;5073082;28;19908;-71
2022/07/17 04:32:51;;;;;;;;;;;25.50;96.40;;;;;;5072941;28;20268;-71
2022/07/17 04:35:17;;;;;;;;;;;25.60;96.30;;;;;;5073274;28;20315;-71
2022/07/17 04:37:43;;;;;;;;;;;25.60;96.30;;;;;;5072670;28;19905;-71
2022/07/17 04:40:09;;;;;;;;;;;25.60;96.20;;;;;;5072944;28;19905;-71
2022/07/17 04:42:35;;;;;;;;;;;25.60;96.30;;;;;;5073071;28;20003;-71
2022/07/17 04:45:01;;;;;;;;;;;25.70;96.40;;;;;;5073045;28;19966;-71
2022/07/17 04:47:26;;;;;;;;;;;25.70;96.50;;;;;;5072667;28;20291;-71
2022/07/17 04:49:52;;;;;;;;;;;25.70;96.50;;;;;;5072942;28;19908;-71
2022/07/17 04:52:18;;;;;;;;;;;25.70;96.70;;;;;;5072603;28;20376;-71
2022/07/17 04:54:44;;;;;;;;;;;25.80;96.60;;;;;;5070998;28;19905;-71
2022/07/17 04:57:09;;;;;;;;;;;25.80;96.50;;;;;;5072567;28;19934;-71
2022/07/17 04:59:37;;;;;;;;;;;25.80;96.50;;;;;;5072388;28;19904;-71
2022/07/17 05:02:03;;;;;;;;;;;25.80;96.50;;;;;;5072132;28;19912;-71
2022/07/17 05:04:29;;;;;;;;;;;25.80;96.50;;;;;;5072527;28;19905;-70
2022/07/17 05:06:55;;;;;;;;;;;25.80;96.50;;;;;;5072269;28;19911;-71
2022/07/17 05:09:21;;;;;;;;;;;25.90;96.60;;;;;;5072335;28;19908;-71
2022/07/17 05:11:47;;;;;;;;;;;26.30;96.30;;;;;;5071929;28;20249;-71
2022/07/17 05:14:13;;;;;;;;;;;27.40;95.20;;;;;;5072096;28;19935;-71
2022/07/17 05:16:39;;;;;;;;;;;28.40;93.60;;;;;;5071929;28;20360;-71
2022/07/17 05:19:05;;;;;;;;;;;29.10;92.70;;;;;;5104288;28;20199;-71
2022/07/17 05:21:30;;;;;;;;;;;29.70;91.70;;;;;;5072437;28;20049;-71
2022/07/17 05:23:57;;;;;;;;;;;30.40;90.80;;;;;;5072187;28;19948;-71
2022/07/17 05:26:23;;;;;;;;;;;31.60;88.30;;;;;;5071867;28;20240;-71
2022/07/17 05:28:49;;;;;;;;;;;32.50;85.30;;;;;;5072188;28;20320;-71
2022/07/17 05:31:15;;;;;;;;;;;32.40;83.90;;;;;;5072012;28;20061;-71
2022/07/17 05:33:41;;;;;;;;;;;32.40;83.90;;;;;;5071828;28;19988;-71
2022/07/17 05:36:07;;;;;;;;;;;32.90;82.80;;;;;;5070435;28;19999;-71
2022/07/17 05:38:33;;;;;;;;;;;33.40;81.40;;;;;;5071804;28;19908;-71
2022/07/17 05:40:59;;;;;;;;;;;34.10;79.10;;;;;;5072085;28;19987;-71
2022/07/17 05:43:25;;;;;;;;;;;34.40;77.40;;;;;;5072038;28;20323;-71
2022/07/17 05:45:54;;;;;;;;;;;34.80;76.00;;;;;;5072080;28;19970;-70
2022/07/17 05:48:20;;;;;;;;;;;34.60;75.50;;;;;;5070392;28;20319;-70
2022/07/17 05:50:46;;;;;;;;;;;34.40;76.00;;;;;;5071950;28;20383;-70
2022/07/17 05:53:14;;;;;;;;;;;34.40;75.40;;;;;;5071813;28;19908;-71
2022/07/17 05:55:39;;;;;;;;;;;34.70;74.60;;;;;;5072161;28;20356;-70
2022/07/17 05:58:05;;;;;;;;;;;34.90;74.00;;;;;;5071617;28;19905;-71
2022/07/17 06:00:31;;;;;;;;;;;35.30;73.00;;;;;;5070348;28;19904;-71
2022/07/17 06:02:57;;;;;;;;;;;35.40;72.40;;;;;;5071632;28;19905;-71
2022/07/17 06:05:23;;;;;;;;;;;36.00;71.00;;;;;;5071997;28;20344;-71
2022/07/17 06:07:48;;;;;;;;;;;37.00;69.30;;;;;;5071859;28;19904;-71
2022/07/17 06:10:14;;;;;;;;;;;37.30;68.20;;;;;;5071456;28;20042;-71
2022/07/17 06:12:40;;;;;;;;;;;38.20;66.70;;;;;;5071727;28;20403;-71
2022/07/17 06:15:06;;;;;;;;;;;39.50;65.10;;;;;;5070363;28;19949;-71
2022/07/17 06:17:32;;;;;;;;;;;41.10;63.40;;;;;;5071884;28;19908;-71
2022/07/17 06:19:58;;;;;;;;;;;42.70;61.00;;;;;;5071465;28;19904;-71
2022/07/17 06:22:23;;;;;;;;;;;43.80;58.70;;;;;;5071547;28;19905;-71
2022/07/17 06:24:49;;;;;;;;;;;44.60;57.00;;;;;;5072704;28;19923;-72
2022/07/17 06:27:15;;;;;;;;;;;45.30;55.30;;;;;;5076202;28;19909;-72
2022/07/17 06:29:41;;;;;;;;;;;45.60;53.40;;;;;;5075724;28;19904;-72
2022/07/17 06:32:07;;;;;;;;;;;45.90;52.60;;;;;;5075582;28;19912;-72
2022/07/17 06:34:33;;;;;;;;;;;46.50;51.90;;;;;;5075831;28;20364;-72
2022/07/17 06:36:58;;;;;;;;;;;46.40;51.70;;;;;;5075663;28;20331;-72
2022/07/17 06:39:24;;;;;;;;;;;46.40;50.50;;;;;;5075970;28;19905;-72
2022/07/17 06:41:50;;;;;;;;;;;47.20;50.00;;;;;;5075569;28;19904;-72
2022/07/17 06:44:16;;;;;;;;;;;47.20;49.30;;;;;;5075845;28;19940;-72
2022/07/17 06:46:41;;;;;;;;;;;47.80;47.90;;;;;;5075438;28;19950;-72
2022/07/17 06:49:07;;;;;;;;;;;47.80;47.70;;;;;;5075350;28;20311;-72
2022/07/17 06:51:33;;;;;;;;;;;47.60;47.80;;;;;;5075368;28;19912;-71
2022/07/17 06:53:59;;;;;;;;;;;47.90;47.90;;;;;;5075112;28;19960;-72
2022/07/17 06:56:25;;;;;;;;;;;48.20;46.70;;;;;;5074978;28;19927;-70
2022/07/17 06:58:50;;;;;;;;;;;47.90;47.40;;;;;;5074896;28;19912;-71
2022/07/17 07:01:16;;;;;;;;;;;48.30;47.20;;;;;;5074992;28;19930;-71
2022/07/17 07:03:42;;;;;;;;;;;47.90;47.00;;;;;;5074973;28;19915;-71
2022/07/17 07:06:08;;;;;;;;;;;46.90;48.40;;;;;;5075234;28;20315;-73
2022/07/17 07:08:35;;;;;;;;;;;46.80;48.70;;;;;;5074744;28;19920;-71
2022/07/17 07:11:02;;;;;;;;;;;46.70;48.70;;;;;;5074297;28;19908;-71
2022/07/17 07:13:28;;;;;;;;;;;47.30;48.90;;;;;;5074825;28;20321;-71
2022/07/17 07:15:54;;;;;;;;;;;46.00;48.20;;;;;;5074345;28;19923;-70
2022/07/17 07:18:20;;;;;;;;;;;45.90;49.60;;;;;;5074725;28;19904;-70
2022/07/17 07:20:46;;;;;;;;;;;46.10;49.30;;;;;;5074159;28;20276;-72
2022/07/17 07:23:12;;;;;;;;;;;46.10;49.50;;;;;;5074406;28;19958;-70
2022/07/17 07:25:38;;;;;;;;;;;45.90;49.60;;;;;;5074251;28;19908;-70
2022/07/17 07:28:04;;;;;;;;;;;44.70;50.70;;;;;;5074544;28;19904;-71
2022/07/17 07:30:30;;;;;;;;;;;43.20;52.20;;;;;;5073725;28;19909;-70
2022/07/17 07:32:56;;;;;;;;;;;42.20;53.70;;;;;;5073715;28;19957;-70
2022/07/17 07:35:22;;;;;;;;;;;41.10;54.80;;;;;;5072961;28;20246;-70
2022/07/17 07:37:48;;;;;;;;;;;39.70;56.90;;;;;;5073528;28;19951;-70
2022/07/17 07:40:14;;;;;;;;;;;38.80;58.70;;;;;;5072868;28;19951;-70
2022/07/17 07:42:40;;;;;;;;;;;37.90;59.70;;;;;;5072826;28;19911;-70
2022/07/17 07:45:06;;;;;;;;;;;38.00;61.30;;;;;;5073354;28;20358;-70
2022/07/17 07:47:32;;;;;;;;;;;38.00;61.30;;;;;;5073677;28;19905;-70
2022/07/17 07:49:58;;;;;;;;;;;38.00;61.80;;;;;;5074424;28;19911;-70
2022/07/17 07:52:24;;;;;;;;;;;37.30;62.30;;;;;;5073905;28;20305;-71
2022/07/17 07:54:50;;;;;;;;;;;37.20;63.90;;;;;;5073485;28;19904;-70
2022/07/17 07:57:15;;;;;;;;;;;37.20;63.40;;;;;;5073386;28;20000;-70
2022/07/17 07:59:41;;;;;;;;;;;37.10;63.50;;;;;;5073583;28;19909;-70
2022/07/17 08:02:07;;;;;;;;;;;37.20;63.20;;;;;;5073499;28;19968;-71
2022/07/17 08:04:33;;;;;;;;;;;36.90;63.70;;;;;;5073997;28;19908;-71
2022/07/17 08:06:59;;;;;;;;;;;36.40;64.70;;;;;;5073397;28;20296;-71
2022/07/17 08:09:25;;;;;;;;;;;35.90;65.50;;;;;;5071964;28;19905;-70
2022/07/17 08:11:50;;;;;;;;;;;36.20;65.90;;;;;;5073295;28;20003;-71
2022/07/17 08:14:16;;;;;;;;;;;36.50;64.50;;;;;;5073678;28;19940;-70
2022/07/17 08:16:42;;;;;;;;;;;36.60;64.30;;;;;;5072859;28;20335;-70
2022/07/17 08:19:08;;;;;;;;;;;36.90;63.50;;;;;;5073232;28;19912;-70
2022/07/17 08:21:33;;;;;;;;;;;36.70;62.40;;;;;;5072890;28;19912;-70
2022/07/17 08:23:59;;;;;;;;;;;36.80;62.20;;;;;;5073303;28;19916;-71
2022/07/17 08:26:25;;;;;;;;;;;37.00;62.20;;;;;;5072900;28;19904;-70
2022/07/17 08:28:51;;;;;;;;;;;37.10;61.50;;;;;;5072882;28;19995;-71
2022/07/17 08:31:17;;;;;;;;;;;37.20;60.60;;;;;;5073159;28;20301;-71
2022/07/17 08:33:42;;;;;;;;;;;37.30;60.30;;;;;;5072816;28;19919;-71
2022/07/17 08:36:08;;;;;;;;;;;37.40;60.40;;;;;;5073458;28;20315;-71
2022/07/17 08:38:34;;;;;;;;;;;37.40;59.70;;;;;;5072802;28;20023;-70
2022/07/17 08:41:00;;;;;;;;;;;37.10;59.60;;;;;;5072840;28;19944;-70
2022/07/17 08:43:26;;;;;;;;;;;36.90;60.40;;;;;;5072929;28;20353;-70
2022/07/17 08:45:51;;;;;;;;;;;36.50;60.80;;;;;;5072846;28;19909;-71
2022/07/17 08:48:18;;;;;;;;;;;36.60;61.90;;;;;;5072068;28;20003;-71
2022/07/17 08:50:44;;;;;;;;;;;36.60;61.90;;;;;;5072931;28;19948;-70
2022/07/17 08:53:10;;;;;;;;;;;36.40;62.00;;;;;;5072811;28;19911;-71
2022/07/17 08:55:36;;;;;;;;;;;36.50;62.10;;;;;;5072608;28;19999;-71
2022/07/17 08:58:04;;;;;;;;;;;36.30;61.80;;;;;;5072724;28;19932;-71
2022/07/17 09:00:30;;;;;;;;;;;35.90;62.80;;;;;;5072522;28;19924;-71
2022/07/17 09:02:58;;;;;;;;;;;35.90;63.50;;;;;;5072613;28;19904;-71
2022/07/17 09:05:25;;;;;;;;;;;35.90;63.80;;;;;;5072971;28;19905;-71
2022/07/17 09:07:51;;;;;;;;;;;36.30;63.20;;;;;;5072657;28;19910;-71
2022/07/17 09:10:17;;;;;;;;;;;36.40;63.30;;;;;;5072199;28;19999;-70
2022/07/17 09:12:43;;;;;;;;;;;36.40;62.60;;;;;;5104728;28;19988;-70
2022/07/17 09:15:18;;;;;;;;;;;36.20;62.80;;;;;;5072443;28;20361;-70
2022/07/17 09:17:48;;;;;;;;;;;35.50;64.00;;;;;;5072486;28;19912;-70
2022/07/17 09:20:14;;;;;;;;;;;35.80;64.40;;;;;;5072047;28;20358;-70
2022/07/17 09:22:42;;;;;;;;;;;35.60;63.80;;;;;;5072440;28;19926;-70
2022/07/17 09:25:08;;;;;;;;;;;35.60;63.80;;;;;;5072071;28;19904;-72
2022/07/17 09:27:33;;;;;;;;;;;35.80;63.20;;;;;;5070359;28;20009;-70
2022/07/17 09:30:05;;;;;;;;;;;35.90;62.60;;;;;;5071253;28;19904;-71
2022/07/17 09:32:34;;;;;;;;;;;35.90;63.60;;;;;;5069766;28;20369;-70
2022/07/17 09:35:00;;;;;;;;;;;35.90;63.30;;;;;;5071521;28;20018;-70
2022/07/17 09:37:27;;;;;;;;;;;35.90;63.00;;;;;;5071699;28;19904;-70
2022/07/17 09:39:55;;;;;;;;;;;35.70;59.50;;;;;;5071552;28;19923;-69
2022/07/17 09:42:22;;;;;;;;;;;35.50;62.20;;;;;;5071869;28;19904;-70
2022/07/17 09:44:57;;;;;;;;;;;35.30;63.30;;;;;;5071546;28;19991;-70
2022/07/17 09:47:24;;;;;;;;;;;35.20;64.50;;;;;;5070937;28;19931;-70
2022/07/17 09:49:53;;;;;;;;;;;35.00;63.60;;;;;;5103685;28;19942;-70
2022/07/17 09:52:19;;;;;;;;;;;35.20;65.30;;;;;;5071890;28;20309;-70
2022/07/17 09:54:47;;;;;;;;;;;35.10;64.20;;;;;;5072144;28;19908;-70
2022/07/17 09:57:14;;;;;;;;;;;34.70;64.80;;;;;;5072037;28;20287;-71
2022/07/17 09:59:41;;;;;;;;;;;34.30;66.00;;;;;;5072127;28;20001;-70
2022/07/17 10:02:06;;;;;;;;;;;34.40;68.40;;;;;;5070420;28;20253;-71
2022/07/17 10:04:34;;;;;;;;;;;34.50;69.90;;;;;;5072308;28;19914;-70
2022/07/17 10:07:00;;;;;;;;;;;34.40;70.00;;;;;;5071592;28;19904;-72
2022/07/17 10:09:26;;;;;;;;;;;34.10;69.10;;;;;;5071757;28;19995;-71
2022/07/17 10:11:52;;;;;;;;;;;34.30;68.90;;;;;;5071689;28;19912;-71
2022/07/17 10:14:18;;;;;;;;;;;34.30;68.10;;;;;;5071609;28;19908;-70
2022/07/17 10:16:45;;;;;;;;;;;34.30;67.00;;;;;;5071183;28;20269;-70
2022/07/17 10:19:21;;;;;;;;;;;34.00;68.00;;;;;;5072093;28;20415;-71
2022/07/17 10:21:54;;;;;;;;;;;34.00;66.90;;;;;;5071884;28;19912;-71
2022/07/17 10:24:21;;;;;;;;;;;34.10;67.90;;;;;;5070102;28;19951;-71
2022/07/17 10:26:49;;;;;;;;;;;34.10;67.60;;;;;;5072060;28;19909;-71
2022/07/17 10:29:30;;;;;;;;;;;33.80;68.10;;;;;;5070051;28;19905;-71
2022/07/17 10:31:56;;;;;;;;;;;34.00;68.40;;;;;;5071314;28;19912;-70
2022/07/17 10:34:36;;;;;;;;;;;34.00;69.10;;;;;;5070451;28;20248;-70
2022/07/17 10:37:02;;;;;;;;;;;33.90;69.20;;;;;;5071601;28;19904;-70
2022/07/17 10:39:28;;;;;;;;;;;33.80;69.50;;;;;;5071301;28;19995;-70
2022/07/17 10:41:58;;;;;;;;;;;33.80;70.20;;;;;;5071566;28;19912;-71
2022/07/17 10:44:28;;;;;;;;;;;33.70;70.50;;;;;;5071184;28;19969;-71
2022/07/17 10:46:54;;;;;;;;;;;33.70;71.30;;;;;;5071465;28;20304;-70
2022/07/17 10:49:20;;;;;;;;;;;33.70;71.20;;;;;;5071454;28;19943;-71
2022/07/17 10:51:46;;;;;;;;;;;33.60;71.10;;;;;;5071090;28;20384;-71
2022/07/17 10:54:12;;;;;;;;;;;33.50;72.10;;;;;;5071243;28;20129;-71
2022/07/17 10:56:40;;;;;;;;;;;33.50;72.40;;;;;;5071478;28;19952;-71
2022/07/17 10:59:06;;;;;;;;;;;33.70;71.90;;;;;;5069743;28;19904;-71
2022/07/17 11:01:33;;;;;;;;;;;33.50;72.90;;;;;;5071530;28;20294;-71
2022/07/17 11:04:00;;;;;;;;;;;33.40;73.80;;;;;;5070997;28;19931;-70
2022/07/17 11:06:26;;;;;;;;;;;33.40;72.50;;;;;;5071076;28;19966;-71
2022/07/17 11:08:51;;;;;;;;;;;33.50;74.80;;;;;;5069611;28;19938;-71
2022/07/17 11:11:19;;;;;;;;;;;33.50;75.10;;;;;;5072719;28;20029;-71
2022/07/17 11:13:45;;;;;;;;;;;33.70;72.40;;;;;;5074568;28;20310;-71
2022/07/17 11:16:11;;;;;;;;;;;33.80;72.90;;;;;;5074351;28;19916;-71
2022/07/17 11:18:37;;;;;;;;;;;33.90;71.00;;;;;;5074481;28;19990;-71
2022/07/17 11:21:04;;;;;;;;;;;34.10;68.50;;;;;;5074404;28;19908;-71
2022/07/17 11:23:31;;;;;;;;;;;34.10;69.30;;;;;;5107128;28;19904;-71
2022/07/17 11:26:04;;;;;;;;;;;34.10;66.50;;;;;;5074368;28;19904;-70
2022/07/17 11:28:42;;;;;;;;;;;34.00;68.40;;;;;;5073946;28;19904;-70
2022/07/17 11:31:22;;;;;;;;;;;34.30;69.60;;;;;;5074206;28;19916;-70
2022/07/17 11:33:48;;;;;;;;;;;34.30;68.30;;;;;;5073942;28;20478;-70
2022/07/17 11:36:24;;;;;;;;;;;34.20;68.60;;;;;;5074206;28;19904;-71
2022/07/17 11:38:51;;;;;;;;;;;33.80;70.90;;;;;;5074147;28;19904;-70
2022/07/17 11:41:17;;;;;;;;;;;33.90;69.90;;;;;;5074249;28;19943;-70
2022/07/17 11:43:44;;;;;;;;;;;33.90;72.30;;;;;;5074007;28;19916;-70
2022/07/17 11:46:10;;;;;;;;;;;33.90;71.90;;;;;;5074284;28;19904;-71
2022/07/17 11:48:35;;;;;;;;;;;34.00;71.00;;;;;;5073828;28;19916;-71
2022/07/17 11:51:01;;;;;;;;;;;34.00;71.00;;;;;;5074011;28;19912;-71
2022/07/17 11:53:35;;;;;;;;;;;33.90;69.50;;;;;;5072381;28;19904;-71
2022/07/17 11:56:01;;;;;;;;;;;33.90;68.40;;;;;;5074221;28;19965;-71
2022/07/17 11:58:27;;;;;;;;;;;33.90;69.30;;;;;;5072436;28;19916;-70
2022/07/17 12:01:00;;;;;;;;;;;34.00;68.80;;;;;;5073827;28;20429;-71
2022/07/17 12:03:26;;;;;;;;;;;34.00;67.30;;;;;;5073806;28;19913;-70
2022/07/17 12:05:52;;;;;;;;;;;34.20;66.00;;;;;;5073527;28;19905;-71
2022/07/17 12:08:21;;;;;;;;;;;34.10;66.40;;;;;;5073393;28;19987;-71
2022/07/17 12:10:50;;;;;;;;;;;34.20;67.20;;;;;;5105697;28;19916;-71
2022/07/17 12:13:15;;;;;;;;;;;34.20;67.40;;;;;;5073348;28;19938;-70
2022/07/17 12:15:43;;;;;;;;;;;34.50;67.00;;;;;;5073281;28;19923;-70
2022/07/17 12:18:25;;;;;;;;;;;34.30;64.50;;;;;;5073759;28;19912;-71
2022/07/17 12:20:52;;;;;;;;;;;34.30;64.60;;;;;;5073120;28;20049;-71
2022/07/17 12:23:31;;;;;;;;;;;34.30;64.10;;;;;;5073701;28;19963;-71
2022/07/17 12:26:07;;;;;;;;;;;34.40;61.00;;;;;;5073504;28;19908;-70
2022/07/17 12:28:34;;;;;;;;;;;34.40;60.60;;;;;;5073488;28;20005;-71
2022/07/17 12:31:00;;;;;;;;;;;34.60;60.30;;;;;;5073305;28;19916;-71
2022/07/17 12:33:26;;;;;;;;;;;34.70;61.20;;;;;;5073364;28;20315;-70
2022/07/17 12:35:52;;;;;;;;;;;34.70;61.30;;;;;;5073113;28;19908;-71
2022/07/17 12:38:18;;;;;;;;;;;34.70;61.90;;;;;;5073361;28;19934;-71
2022/07/17 12:40:44;;;;;;;;;;;34.80;61.60;;;;;;5073219;28;19991;-70
2022/07/17 12:43:10;;;;;;;;;;;34.60;61.80;;;;;;5073099;28;20018;-71
2022/07/17 12:45:35;;;;;;;;;;;34.70;61.60;;;;;;5072863;28;19908;-71
2022/07/17 12:48:02;;;;;;;;;;;34.70;63.60;;;;;;5072735;28;19909;-71
2022/07/17 12:50:28;;;;;;;;;;;34.80;64.10;;;;;;5073102;28;20002;-71
2022/07/17 12:52:54;;;;;;;;;;;34.60;64.90;;;;;;5072869;28;20367;-71
2022/07/17 12:55:20;;;;;;;;;;;34.30;65.90;;;;;;5072576;28;19991;-71
2022/07/17 12:57:46;;;;;;;;;;;34.50;64.90;;;;;;5072937;28;19919;-71
2022/07/17 13:00:12;;;;;;;;;;;34.40;62.30;;;;;;5072720;28;19905;-71
2022/07/17 13:02:38;;;;;;;;;;;34.40;64.90;;;;;;5071019;28;19905;-71
2022/07/17 13:05:04;;;;;;;;;;;34.30;65.80;;;;;;5072695;28;20034;-70
2022/07/17 13:07:30;;;;;;;;;;;34.30;66.90;;;;;;5072572;28;19911;-71
2022/07/17 13:09:56;;;;;;;;;;;34.30;67.10;;;;;;5072470;28;19904;-71
2022/07/17 13:12:22;;;;;;;;;;;34.30;68.50;;;;;;5072251;28;19983;-70
2022/07/17 13:14:48;;;;;;;;;;;34.30;68.60;;;;;;5072377;28;19904;-71
2022/07/17 13:17:15;;;;;;;;;;;34.30;71.00;;;;;;5072210;28;20283;-71
2022/07/17 13:19:41;;;;;;;;;;;34.40;71.90;;;;;;5072173;28;19911;-70
2022/07/17 13:22:07;;;;;;;;;;;34.40;71.40;;;;;;5071926;28;19995;-71
2022/07/17 13:24:33;;;;;;;;;;;34.20;71.50;;;;;;5071987;28;20004;-70
2022/07/17 13:26:59;;;;;;;;;;;34.20;74.00;;;;;;5071735;28;20332;-71
2022/07/17 13:29:28;;;;;;;;;;;34.10;72.20;;;;;;5072250;28;19908;-71
2022/07/17 13:31:54;;;;;;;;;;;34.10;72.10;;;;;;5071921;28;20403;-71
2022/07/17 13:34:20;;;;;;;;;;;34.20;71.70;;;;;;5071888;28;19916;-71
2022/07/17 13:36:46;;;;;;;;;;;34.10;70.80;;;;;;5071870;28;20008;-70
2022/07/17 13:39:12;;;;;;;;;;;34.20;69.70;;;;;;5071825;28;20365;-71
2022/07/17 13:41:38;;;;;;;;;;;34.30;65.00;;;;;;5070761;28;19904;-71
2022/07/17 13:44:04;;;;;;;;;;;34.40;65.50;;;;;;5072136;28;19987;-71
2022/07/17 13:46:30;;;;;;;;;;;34.50;64.70;;;;;;5071770;28;19910;-71
2022/07/17 13:48:56;;;;;;;;;;;34.30;67.00;;;;;;5071762;28;19908;-70
2022/07/17 13:51:22;;;;;;;;;;;34.30;62.80;;;;;;5071747;28;19912;-71
2022/07/17 13:53:48;;;;;;;;;;;34.30;63.30;;;;;;5071866;28;19912;-70
2022/07/17 13:56:14;;;;;;;;;;;34.30;63.40;;;;;;5071786;28;19912;-71
2022/07/17 13:58:40;;;;;;;;;;;34.40;64.40;;;;;;5072050;28;19905;-72
2022/07/17 14:01:06;;;;;;;;;;;34.50;65.80;;;;;;5071729;28;20435;-72
2022/07/17 14:03:32;;;;;;;;;;;34.30;67.40;;;;;;5072234;28;19940;-69
2022/07/17 14:05:58;;;;;;;;;;;34.40;68.90;;;;;;5071673;28;19905;-72
2022/07/17 14:08:24;;;;;;;;;;;34.30;69.60;;;;;;5071928;28;19908;-69
2022/07/17 14:10:50;;;;;;;;;;;34.30;70.50;;;;;;5071753;28;20341;-71
2022/07/17 14:13:16;;;;;;;;;;;34.20;71.10;;;;;;5070383;28;19961;-72